Time;durP1;ratioP1;P1;durP2;ratioP2;P2;SDS_P1;SDS_P2;PMS_P1;PMS_P2;Temp;Humidity;BMP_temperature;BMP_pressure;BME280_temperature;BME280_humidity;BME280_pressure;Samples;Min_cycle;Max_cycle;Signal;HPM_P1;HPM_P2
2022/03/17 00:00:56;;;;;;;;;;;;;;;10.25;68.7002;101848.4;;;;-80
2022/03/17 00:05:59;;;;;;;;;;;;;;;10.25;69.01074;101841.4;;;;-81
2022/03/17 00:10:58;;;;;;;;;;;;;;;10.24;69.04297;101840.7;;;;-80
2022/03/17 00:11:36;;;;;;;19.5;9.6;;;;;;;;;;;;;-82
2022/03/17 00:15:59;;;;;;;;;;;;;;;10.24;69.1748;101838.9;;;;-79
2022/03/17 00:20:56;;;;;;;;;;;;;;;10.24;69.24219;101837.6;;;;-80
2022/03/17 00:25:56;;;;;;;;;;;;;;;10.25;69.66406;101840.5;;;;-80
2022/03/17 00:30:56;;;;;;;;;;;;;;;10.25;69.69824;101838.1;;;;-80
2022/03/17 00:36:05;;;;;;;;;;;;;;;10.25;69.88672;101838.9;;;;-82
2022/03/17 00:41:00;;;;;;;;;;;;;;;10.28;70.49023;101834.3;;;;-81
2022/03/17 00:41:34;;;;;;;18.9;9.3;;;;;;;;;;;;;-80
2022/03/17 00:45:56;;;;;;;;;;;;;;;10.29;70.54688;101843.7;;;;-81
2022/03/17 00:50:56;;;;;;;;;;;;;;;10.32;70.67383;101847.3;;;;-81
2022/03/17 00:55:59;;;;;;;;;;;;;;;10.34;71.43066;101850.7;;;;-79
2022/03/17 01:01:00;;;;;;;;;;;;;;;10.36;72.01172;101839.5;;;;-79
2022/03/17 01:05:56;;;;;;;;;;;;;;;10.35;72.28906;101839.2;;;;-80
2022/03/17 01:11:07;;;;;;;;;;;;;;;10.36;73.10938;101833.7;;;;-82
2022/03/17 01:11:38;;;;;;;19.9;10;;;;;;;;;;;;;-80
2022/03/17 01:15:56;;;;;;;;;;;;;;;10.34;73.4375;101837.3;;;;-81
2022/03/17 01:21:09;;;;;;;;;;;;;;;10.31;73.64258;101831.8;;;;-82
2022/03/17 01:26:02;;;;;;;;;;;;;;;10.31;73.49902;101844.2;;;;-82
2022/03/17 01:30:56;;;;;;;;;;;;;;;10.29;73.86133;101847.1;;;;-82
2022/03/17 01:35:59;;;;;;;;;;;;;;;10.29;73.5498;101847.1;;;;-79
2022/03/17 01:40:59;;;;;;;;;;;;;;;10.28;73.77148;101836.8;;;;-81
2022/03/17 01:41:35;;;;;;;19;10.4;;;;;;;;;;;;;-79
2022/03/17 01:45:58;;;;;;;;;;;;;;;10.29;73.66211;101843.5;;;;-79
2022/03/17 01:50:56;;;;;;;;;;;;;;;10.28;73.72754;101840.4;;;;-80
2022/03/17 01:55:58;;;;;;;;;;;;;;;10.29;74.46973;101844.1;;;;-79
2022/03/17 02:00:56;;;;;;;;;;;;;;;10.27;75.13086;101846.6;;;;-81
2022/03/17 02:05:56;;;;;;;;;;;;;;;10.24;76.03418;101845.6;;;;-81
2022/03/17 02:16:02;;;;;;;;;;;;;;;10.16;76.23145;101861;;;;-80
2022/03/17 02:20:57;;;;;;;;;;;;;;;10.15;77.38086;101879.4;;;;-80
2022/03/17 02:25:59;;;;;;;;;;;;;;;10.13;77.51074;101895.5;;;;-82
2022/03/17 02:30:56;;;;;;;;;;;;;;;10.1;76.02148;101921.9;;;;-81
2022/03/17 02:35:57;;;;;;;;;;;;;;;10.07;76.60254;101932.9;;;;-80
2022/03/17 02:40:56;;;;;;;;;;;;;;;9.99;75.65918;101935;;;;-80
2022/03/17 02:41:36;;;;;;;15.9;8.2;;;;;;;;;;;;;-81
2022/03/17 02:45:56;;;;;;;;;;;;;;;9.85;75.10449;101943.9;;;;-81
2022/03/17 02:50:56;;;;;;;;;;;;;;;9.7;74.62598;101949.6;;;;-79
2022/03/17 02:55:56;;;;;;;;;;;;;;;9.52;74.62793;101959;;;;-80
2022/03/17 03:00:57;;;;;;;;;;;;;;;9.39;74.66016;101971.4;;;;-81
2022/03/17 03:06:03;;;;;;;;;;;;;;;9.28;74.5752;101997.9;;;;-80
2022/03/17 03:10:56;;;;;;;;;;;;;;;9.17;74.44531;102004.7;;;;-79
2022/03/17 03:11:37;;;;;;;8;3.8;;;;;;;;;;;;;-78
2022/03/17 03:15:56;;;;;;;;;;;;;;;9.09;74.59766;102019.7;;;;-80
2022/03/17 03:20:56;;;;;;;;;;;;;;;9.01;74.69531;102046;;;;-79
2022/03/17 03:25:56;;;;;;;;;;;;;;;8.92;74.5918;102056.9;;;;-79
2022/03/17 03:30:56;;;;;;;;;;;;;;;8.85;74.74609;102056;;;;-79
2022/03/17 03:40:59;;;;;;;;;;;;;;;8.73;74.86621;102076.9;;;;-81
2022/03/17 03:41:38;;;;;;;6.7;3.1;;;;;;;;;;;;;-80
2022/03/17 03:45:56;;;;;;;;;;;;;;;8.66;74.7998;102085.6;;;;-80
2022/03/17 03:50:56;;;;;;;;;;;;;;;8.61;74.84766;102104.7;;;;-80
2022/03/17 03:55:59;;;;;;;;;;;;;;;8.58;74.84082;102120.1;;;;-79
2022/03/17 04:00:56;;;;;;;;;;;;;;;8.53;74.75488;102128.4;;;;-79
2022/03/17 04:05:56;;;;;;;;;;;;;;;8.49;74.72656;102147.7;;;;-80
2022/03/17 04:10:56;;;;;;;;;;;;;;;8.44;74.75195;102163.4;;;;-79
2022/03/17 04:11:39;;;;;;;9.7;3.6;;;;;;;;;;;;;-79
2022/03/17 04:15:56;;;;;;;;;;;;;;;8.41;74.83496;102174.8;;;;-79
2022/03/17 04:20:56;;;;;;;;;;;;;;;8.37;74.86035;102184.9;;;;-80
2022/03/17 04:25:56;;;;;;;;;;;;;;;8.33;74.82129;102204.3;;;;-81
2022/03/17 04:30:56;;;;;;;;;;;;;;;8.29;74.86816;102210.8;;;;-79
2022/03/17 04:35:56;;;;;;;;;;;;;;;8.25;74.88281;102226;;;;-79
2022/03/17 04:40:56;;;;;;;;;;;;;;;8.2;74.86523;102253.5;;;;-79
2022/03/17 04:41:39;;;;;;;7.1;1.6;;;;;;;;;;;;;-79
2022/03/17 04:45:56;;;;;;;;;;;;;;;8.17;74.75977;102264;;;;-80
2022/03/17 04:50:56;;;;;;;;;;;;;;;8.12;74.65137;102271.4;;;;-80
2022/03/17 04:55:59;;;;;;;;;;;;;;;8.09;74.66895;102283.5;;;;-80
2022/03/17 05:01:01;;;;;;;;;;;;;;;8.06;74.5752;102304.8;;;;-80
2022/03/17 05:05:56;;;;;;;;;;;;;;;8.03;74.34863;102313.2;;;;-79
2022/03/17 05:10:57;;;;;;;;;;;;;;;8;74.52246;102319.5;;;;-77
2022/03/17 05:11:40;;;;;;;7.7;1.3;;;;;;;;;;;;;-81
2022/03/17 05:15:56;;;;;;;;;;;;;;;7.96;74.72559;102340;;;;-79
2022/03/17 05:21:01;;;;;;;;;;;;;;;7.92;74.78223;102358.6;;;;-80
2022/03/17 05:25:57;;;;;;;;;;;;;;;7.9;74.74707;102360.7;;;;-80
2022/03/17 05:30:57;;;;;;;;;;;;;;;7.87;74.81836;102371.4;;;;-80
2022/03/17 05:35:56;;;;;;;;;;;;;;;7.84;74.85742;102388.2;;;;-79
2022/03/17 05:40:57;;;;;;;;;;;;;;;7.81;75.0498;102412.3;;;;-80
2022/03/17 05:41:41;;;;;;;8.7;1.3;;;;;;;;;;;;;-79
2022/03/17 05:45:56;;;;;;;;;;;;;;;7.78;74.94531;102430.6;;;;-80
2022/03/17 05:50:56;;;;;;;;;;;;;;;7.74;74.96094;102450.9;;;;-79
2022/03/17 05:55:56;;;;;;;;;;;;;;;7.68;74.83984;102461.8;;;;-79
2022/03/17 06:00:57;;;;;;;;;;;;;;;7.64;74.7793;102487.2;;;;-80
2022/03/17 06:05:56;;;;;;;;;;;;;;;7.62;74.65332;102494.6;;;;-80
2022/03/17 06:10:56;;;;;;;;;;;;;;;7.58;74.57129;102506.6;;;;-79
2022/03/17 06:11:41;;;;;;;10.5;1.3;;;;;;;;;;;;;-78
2022/03/17 06:15:56;;;;;;;;;;;;;;;7.56;74.45801;102522.1;;;;-77
2022/03/17 06:20:56;;;;;;;;;;;;;;;7.54;74.2666;102541.9;;;;-79
2022/03/17 06:25:57;;;;;;;;;;;;;;;7.51;74.22852;102558.8;;;;-79
2022/03/17 06:30:56;;;;;;;;;;;;;;;7.5;74.11719;102571.1;;;;-80
2022/03/17 06:35:56;;;;;;;;;;;;;;;7.48;74.03516;102579.1;;;;-79
2022/03/17 06:40:58;;;;;;;;;;;;;;;7.46;74.00098;102587.5;;;;-79
2022/03/17 06:41:42;;;;;;;8;1.3;;;;;;;;;;;;;-81
2022/03/17 06:45:56;;;;;;;;;;;;;;;7.45;73.89844;102593.4;;;;-80
2022/03/17 06:50:57;;;;;;;;;;;;;;;7.44;73.82031;102625.5;;;;-80
2022/03/17 06:55:56;;;;;;;;;;;;;;;7.41;73.5957;102628.5;;;;-79
2022/03/17 07:00:58;;;;;;;;;;;;;;;7.41;73.50684;102642.1;;;;-79
2022/03/17 07:05:57;;;;;;;;;;;;;;;7.4;73.24023;102659.1;;;;-79
2022/03/17 07:10:56;;;;;;;;;;;;;;;7.38;73.14844;102664.8;;;;-79
2022/03/17 07:11:42;;;;;;;8.8;1.1;;;;;;;;;;;;;-79
2022/03/17 07:15:56;;;;;;;;;;;;;;;7.37;73.01563;102677.2;;;;-79
2022/03/17 07:20:58;;;;;;;;;;;;;;;7.34;72.93359;102687.5;;;;-79
2022/03/17 07:25:56;;;;;;;;;;;;;;;7.35;72.98828;102695.2;;;;-80
2022/03/17 07:30:56;;;;;;;;;;;;;;;7.35;73.10059;102705.1;;;;-81
2022/03/17 07:35:56;;;;;;;;;;;;;;;7.39;73.19629;102710.6;;;;-80
2022/03/17 07:40:57;;;;;;;;;;;;;;;7.43;73.26855;102721.9;;;;-79
2022/03/17 07:41:43;;;;;;;7.7;1.2;;;;;;;;;;;;;-80
2022/03/17 07:45:57;;;;;;;;;;;;;;;7.47;73.3623;102734.4;;;;-80
2022/03/17 07:50:56;;;;;;;;;;;;;;;7.49;73.34473;102751.4;;;;-79
2022/03/17 07:55:57;;;;;;;;;;;;;;;7.48;73.16699;102763.9;;;;-81
2022/03/17 08:01:07;;;;;;;;;;;;;;;7.45;73.11523;102766.1;;;;-78
2022/03/17 08:05:58;;;;;;;;;;;;;;;7.41;73.10156;102784.3;;;;-80
2022/03/17 08:10:57;;;;;;;;;;;;;;;7.48;73.27734;102789.6;;;;-80
2022/03/17 08:11:44;;;;;;;8.9;1.1;;;;;;;;;;;;;-80
2022/03/17 08:15:56;;;;;;;;;;;;;;;7.63;73.24707;102800.3;;;;-79
2022/03/17 08:20:58;;;;;;;;;;;;;;;7.79;72.85645;102808;;;;-80
2022/03/17 08:25:59;;;;;;;;;;;;;;;7.91;72.38965;102813;;;;-81
2022/03/17 08:31:02;;;;;;;;;;;;;;;7.98;72.26953;102828.5;;;;-80
2022/03/17 08:35:56;;;;;;;;;;;;;;;8.04;72.08105;102837.1;;;;-80
2022/03/17 08:40:56;;;;;;;;;;;;;;;8.13;71.89746;102847.3;;;;-79
2022/03/17 08:41:45;;;;;;;4.5;0.8;;;;;;;;;;;;;-80
2022/03/17 08:51:00;;;;;;;;;;;;;;;8.46;71.37793;102875.7;;;;-80
2022/03/17 08:55:57;;;;;;;;;;;;;;;8.92;71.2998;102884.2;;;;-80
2022/03/17 09:00:57;;;;;;;;;;;;;;;9.3;69.44824;102892.3;;;;-79
2022/03/17 09:05:58;;;;;;;;;;;;;;;9.65;68.65918;102903.8;;;;-80
2022/03/17 09:10:58;;;;;;;;;;;;;;;9.85;67.91699;102911.8;;;;-78
2022/03/17 09:11:50;;;;;;;6.1;1.3;;;;;;;;;;;;;-79
2022/03/17 09:15:57;;;;;;;;;;;;;;;10.21;67.16309;102926;;;;-80
2022/03/17 09:21:01;;;;;;;;;;;;;;;10.65;65.69727;102935.7;;;;-79
2022/03/17 09:25:56;;;;;;;;;;;;;;;10.94;64.99414;102944.5;;;;-81
2022/03/17 09:30:56;;;;;;;;;;;;;;;11.24;63.79297;102944.8;;;;-80
2022/03/17 09:36:00;;;;;;;;;;;;;;;11.57;63.0957;102960.4;;;;-80
2022/03/17 09:40:58;;;;;;;;;;;;;;;11.83;62.58398;102970.9;;;;-81
2022/03/17 09:41:47;;;;;;;6.1;1.1;;;;;;;;;;;;;-80
2022/03/17 09:46:01;;;;;;;;;;;;;;;12.17;62.23145;102978.8;;;;-80
2022/03/17 09:50:59;;;;;;;;;;;;;;;12.45;61.55566;102976.7;;;;-80
2022/03/17 09:55:56;;;;;;;;;;;;;;;12.68;60.7041;102980;;;;-81
2022/03/17 10:01:01;;;;;;;;;;;;;;;12.89;60.33008;102988.1;;;;-79
2022/03/17 10:05:57;;;;;;;;;;;;;;;13.15;59.69434;102994.2;;;;-80
2022/03/17 10:10:56;;;;;;;;;;;;;;;13.39;59.33594;103008.9;;;;-81
2022/03/17 10:11:47;;;;;;;6.8;1.4;;;;;;;;;;;;;-81
2022/03/17 10:16:06;;;;;;;;;;;;;;;13.58;58.53027;103025.5;;;;-80
2022/03/17 10:21:07;;;;;;;;;;;;;;;13.7;58.01953;103028.1;;;;-82
2022/03/17 10:25:57;;;;;;;;;;;;;;;13.75;58.54199;103042.7;;;;-80
2022/03/17 10:31:06;;;;;;;;;;;;;;;13.81;57.95508;103055.9;;;;-82
2022/03/17 10:35:56;;;;;;;;;;;;;;;13.93;58.4209;103069.5;;;;-80
2022/03/17 10:41:11;;;;;;;;;;;;;;;14.06;57.2373;103084.8;;;;-81
2022/03/17 10:41:52;;;;;;;6.4;1.3;;;;;;;;;;;;;-80
2022/03/17 10:46:06;;;;;;;;;;;;;;;14.17;58.00391;103089.4;;;;-80
2022/03/17 10:50:59;;;;;;;;;;;;;;;14.4;56.68457;103110;;;;-80
2022/03/17 10:56:10;;;;;;;;;;;;;;;14.58;58.60742;103126.7;;;;-80
2022/03/17 11:00:57;;;;;;;;;;;;;;;14.65;59.38184;103129.3;;;;-75
2022/03/17 11:05:56;;;;;;;;;;;;;;;14.8;60.26855;103143.3;;;;-77
2022/03/17 11:10:57;;;;;;;;;;;;;;;14.99;60.24902;103148.1;;;;-74
2022/03/17 11:11:51;;;;;;;8.5;1.4;;;;;;;;;;;;;-77
2022/03/17 11:15:58;;;;;;;;;;;;;;;15.15;58.8877;103165.1;;;;-76
2022/03/17 11:21:06;;;;;;;;;;;;;;;15.25;60.95898;103166;;;;-76
2022/03/17 11:26:00;;;;;;;;;;;;;;;15.41;61.73438;103168.3;;;;-75
2022/03/17 11:31:02;;;;;;;;;;;;;;;15.47;59.48145;103174.8;;;;-76
2022/03/17 11:36:03;;;;;;;;;;;;;;;15.59;63.2002;103180.7;;;;-80
2022/03/17 11:41:07;;;;;;;;;;;;;;;15.74;63.67285;103185;;;;-81
2022/03/17 11:41:53;;;;;;;7.1;1.3;;;;;;;;;;;;;-79
2022/03/17 11:46:06;;;;;;;;;;;;;;;15.92;64.08008;103193.4;;;;-82
2022/03/17 11:51:06;;;;;;;;;;;;;;;16.04;61.0127;103197.5;;;;-82
2022/03/17 11:56:01;;;;;;;;;;;;;;;16;63.47461;103206.8;;;;-81
2022/03/17 12:00:57;;;;;;;;;;;;;;;16.05;62.89551;103212.5;;;;-81
2022/03/17 12:06:12;;;;;;;;;;;;;;;15.98;62.50195;103214.5;;;;-81
2022/03/17 12:11:07;;;;;;;;;;;;;;;15.95;63.02734;103215.1;;;;-82
2022/03/17 12:11:59;;;;;;;8.4;1.3;;;;;;;;;;;;;-81
2022/03/17 12:16:01;;;;;;;;;;;;;;;15.99;62.86328;103224.2;;;;-82
2022/03/17 12:21:00;;;;;;;;;;;;;;;16.09;62.81055;103226.6;;;;-81
2022/03/17 12:26:10;;;;;;;;;;;;;;;16.17;62.36133;103228.8;;;;-82
2022/03/17 12:30:57;;;;;;;;;;;;;;;16.22;63.06641;103231.1;;;;-79
2022/03/17 12:36:06;;;;;;;;;;;;;;;16.34;63.37598;103227.8;;;;-81
2022/03/17 12:40:56;;;;;;;;;;;;;;;16.43;62.75781;103228.3;;;;-80
2022/03/17 12:41:57;;;;;;;7;1.3;;;;;;;;;;;;;-82
2022/03/17 12:46:00;;;;;;;;;;;;;;;16.45;63.62793;103234.6;;;;-80
2022/03/17 12:51:06;;;;;;;;;;;;;;;16.51;64.2002;103242.6;;;;-81
2022/03/17 12:55:58;;;;;;;;;;;;;;;16.52;63.37793;103238.3;;;;-82
2022/03/17 13:01:01;;;;;;;;;;;;;;;16.54;63.22461;103245.9;;;;-84
2022/03/17 13:15:56;;;;;;;;;;;;;;;16.44;64.23438;103244;;;;-82
2022/03/17 13:21:04;;;;;;;;;;;;;;;16.52;64.25781;103242;;;;-82
2022/03/17 13:26:01;;;;;;;;;;;;;;;16.61;63.73047;103246.9;;;;-81
2022/03/17 13:30:57;;;;;;;;;;;;;;;16.64;63.55469;103256.1;;;;-83
2022/03/17 13:35:57;;;;;;;;;;;;;;;16.72;63.41797;103252.5;;;;-81
2022/03/17 13:41:00;;;;;;;;;;;;;;;16.7;63.74414;103268.3;;;;-83
2022/03/17 13:42:10;;;;;;;6.7;1;;;;;;;;;;;;;-84
2022/03/17 13:45:59;;;;;;;;;;;;;;;16.73;64.52637;103271.5;;;;-82
2022/03/17 13:51:00;;;;;;;;;;;;;;;16.77;63.52637;103271;;;;-83
2022/03/17 13:56:00;;;;;;;;;;;;;;;16.77;64.25;103270.6;;;;-83
2022/03/17 14:00:59;;;;;;;;;;;;;;;16.84;64.47266;103276.6;;;;-82
2022/03/17 14:06:10;;;;;;;;;;;;;;;16.86;63.81152;103278.6;;;;-83
2022/03/17 14:10:56;;;;;;;;;;;;;;;16.88;63.4209;103285;;;;-82
2022/03/17 14:12:06;;;;;;;6.8;1.1;;;;;;;;;;;;;-79
2022/03/17 14:15:56;;;;;;;;;;;;;;;16.91;63.15234;103285.4;;;;-81
2022/03/17 14:20:58;;;;;;;;;;;;;;;16.87;62.25586;103290.5;;;;-81
2022/03/17 14:25:59;;;;;;;;;;;;;;;16.78;62.04102;103290;;;;-81
2022/03/17 14:30:59;;;;;;;;;;;;;;;16.74;61.97852;103297.1;;;;-81
2022/03/17 14:35:56;;;;;;;;;;;;;;;16.7;62.16504;103300.4;;;;-82
2022/03/17 14:41:05;;;;;;;;;;;;;;;16.65;62.21191;103305.7;;;;-82
2022/03/17 14:42:12;;;;;;;4.5;1.1;;;;;;;;;;;;;-79
2022/03/17 14:45:56;;;;;;;;;;;;;;;16.56;62.73047;103312.6;;;;-80
2022/03/17 14:50:58;;;;;;;;;;;;;;;16.52;62.24121;103317.1;;;;-83
2022/03/17 14:55:59;;;;;;;;;;;;;;;16.5;61.30176;103330.5;;;;-83
2022/03/17 15:00:56;;;;;;;;;;;;;;;16.41;61.62793;103337.4;;;;-80
2022/03/17 15:05:56;;;;;;;;;;;;;;;16.42;61.38086;103344.5;;;;-82
2022/03/17 15:11:05;;;;;;;;;;;;;;;16.4;58.33203;103348.3;;;;-82
2022/03/17 15:12:13;;;;;;;5;1;;;;;;;;;;;;;-81
2022/03/17 15:15:56;;;;;;;;;;;;;;;16.38;59.58105;103356.5;;;;-82
2022/03/17 15:21:02;;;;;;;;;;;;;;;16.27;60.11914;103354.9;;;;-82
2022/03/17 15:25:56;;;;;;;;;;;;;;;16.13;61.31641;103359.5;;;;-81
2022/03/17 15:30:56;;;;;;;;;;;;;;;15.98;60.99219;103353.7;;;;-80
2022/03/17 15:35:57;;;;;;;;;;;;;;;15.85;61.1084;103361.8;;;;-82
2022/03/17 15:41:00;;;;;;;;;;;;;;;15.68;61.79688;103370;;;;-81
2022/03/17 15:42:38;;;;;;;;;;;;;;;;;;;;;
2022/03/17 15:45:57;;;;;;;;;;;;;;;15.57;60.93555;103377.7;;;;-84
2022/03/17 15:51:16;;;;;;;;;;;;;;;15.42;61.26465;103379.8;;;;-80
2022/03/17 15:56:05;;;;;;;;;;;;;;;15.3;60.81934;103386.6;;;;-80
2022/03/17 16:01:00;;;;;;;;;;;;;;;15.17;61.43164;103403.1;;;;-80
2022/03/17 16:06:10;;;;;;;;;;;;;;;15.05;61.12305;103414.4;;;;-81
2022/03/17 16:15:58;;;;;;;;;;;;;;;14.8;61.70508;103417.6;;;;-80
2022/03/17 16:20:59;;;;;;;;;;;;;;;14.67;62.05859;103425.9;;;;-80
2022/03/17 16:25:59;;;;;;;;;;;;;;;14.54;60.1875;103433.5;;;;-80
2022/03/17 16:31:09;;;;;;;;;;;;;;;14.38;61.40137;103439;;;;-80
2022/03/17 16:36:00;;;;;;;;;;;;;;;14.23;61.52539;103446.5;;;;-80
2022/03/17 16:41:01;;;;;;;;;;;;;;;14.09;61.40527;103453.8;;;;-80
2022/03/17 16:42:30;;;;;;;8.8;1.9;;;;;;;;;;;;;-82
2022/03/17 16:49:17;;;;;;;;;;;;;;;13.8;61.01758;103463.6;;;;-81
2022/03/17 16:54:16;;;;;;;;;;;;;;;13.62;61.12598;103475.4;;;;-80
2022/03/17 16:59:22;;;;;;;;;;;;;;;13.43;61.25684;103484.4;;;;-81
2022/03/17 17:04:13;;;;;;;;;;;;;;;13.22;61.12695;103490.5;;;;-76
2022/03/17 17:09:11;;;;;;;;;;;;;;;12.99;60.87109;103498.1;;;;-78
2022/03/17 17:12:19;;;;;;;6.9;1.9;;;;;;;;;;;;;-79
2022/03/17 17:14:13;;;;;;;;;;;;;;;12.74;60.95898;103505.7;;;;-79
2022/03/17 17:19:12;;;;;;;;;;;;;;;12.5;61.05957;103510.8;;;;-80
2022/03/17 17:34:12;;;;;;;;;;;;;;;11.79;61.0166;103524.7;;;;-82
2022/03/17 17:39:11;;;;;;;;;;;;;;;11.55;61.10645;103542.4;;;;-81
2022/03/17 17:42:19;;;;;;;7.8;1.9;;;;;;;;;;;;;-79
2022/03/17 17:44:21;;;;;;;;;;;;;;;11.3;61.23828;103547.9;;;;-80
2022/03/17 17:49:11;;;;;;;;;;;;;;;11.04;61.1582;103558;;;;-80
2022/03/17 17:54:11;;;;;;;;;;;;;;;10.79;61.44531;103567.1;;;;-80
2022/03/17 17:59:12;;;;;;;;;;;;;;;10.55;61.05566;103582.4;;;;-80
2022/03/17 18:04:11;;;;;;;;;;;;;;;10.3;61.28711;103590.6;;;;-80
2022/03/17 18:09:11;;;;;;;;;;;;;;;10.09;61.24805;103604.8;;;;-79
2022/03/17 18:12:20;;;;;;;7;1.7;;;;;;;;;;;;;-82
2022/03/17 18:14:13;;;;;;;;;;;;;;;9.88;61.27246;103619.4;;;;-80
2022/03/17 18:19:14;;;;;;;;;;;;;;;9.66;61.31934;103626.9;;;;-79
2022/03/17 18:24:22;;;;;;;;;;;;;;;9.46;61.51367;103633.5;;;;-81
2022/03/17 18:29:13;;;;;;;;;;;;;;;9.28;61.67773;103640;;;;-80
2022/03/17 18:34:14;;;;;;;;;;;;;;;9.09;61.90527;103643.5;;;;-79
2022/03/17 18:39:13;;;;;;;;;;;;;;;8.91;62.19922;103633.5;;;;-80
2022/03/17 18:42:24;;;;;;;6.2;1.6;;;;;;;;;;;;;-80
2022/03/17 18:44:13;;;;;;;;;;;;;;;8.74;62.53027;103641.3;;;;-80
2022/03/17 18:49:11;;;;;;;;;;;;;;;8.57;62.67188;103651.8;;;;-80
2022/03/17 18:54:21;;;;;;;;;;;;;;;8.42;62.91602;103663.2;;;;-81
2022/03/17 18:59:17;;;;;;;;;;;;;;;8.28;63.14941;103672.4;;;;-80
2022/03/17 19:04:17;;;;;;;;;;;;;;;8.13;63.34961;103681.1;;;;-80
2022/03/17 19:09:19;;;;;;;;;;;;;;;7.99;63.7041;103695.6;;;;-78
2022/03/17 19:12:26;;;;;;;4.8;1.4;;;;;;;;;;;;;-79
2022/03/17 19:14:18;;;;;;;;;;;;;;;7.86;63.85156;103699.6;;;;-80
2022/03/17 19:19:11;;;;;;;;;;;;;;;7.73;63.88867;103705.9;;;;-78
2022/03/17 19:24:13;;;;;;;;;;;;;;;7.61;64.03613;103714;;;;-80
2022/03/17 19:29:26;;;;;;;;;;;;;;;7.49;64.15137;103724.9;;;;-80
2022/03/17 19:34:11;;;;;;;;;;;;;;;7.39;64.30176;103730.4;;;;-80
2022/03/17 19:39:12;;;;;;;;;;;;;;;7.3;64.47559;103734.8;;;;-80
2022/03/17 19:42:26;;;;;;;6.3;1.7;;;;;;;;;;;;;-81
2022/03/17 19:44:17;;;;;;;;;;;;;;;7.19;64.38281;103747.2;;;;-81
2022/03/17 19:49:13;;;;;;;;;;;;;;;7.11;64.53516;103751.1;;;;-82
2022/03/17 19:54:14;;;;;;;;;;;;;;;7.03;64.69824;103754.5;;;;-83
2022/03/17 19:59:19;;;;;;;;;;;;;;;6.95;64.83203;103768.1;;;;-82
2022/03/17 20:04:14;;;;;;;;;;;;;;;6.88;64.77734;103780.1;;;;-82
2022/03/17 20:09:11;;;;;;;;;;;;;;;6.81;64.82129;103778.9;;;;-81
2022/03/17 20:14:13;;;;;;;;;;;;;;;6.73;65.22949;103779.4;;;;-81
2022/03/17 20:19:11;;;;;;;;;;;;;;;6.67;65.32813;103784.3;;;;-80
2022/03/17 20:24:13;;;;;;;;;;;;;;;6.62;65.22266;103787.1;;;;-81
2022/03/17 20:29:11;;;;;;;;;;;;;;;6.54;65.36523;103791;;;;-80
2022/03/17 20:34:11;;;;;;;;;;;;;;;6.48;65.36523;103792.4;;;;-79
2022/03/17 20:39:11;;;;;;;;;;;;;;;6.4;65.46484;103794.5;;;;-81
2022/03/17 20:42:23;;;;;;;5;1.7;;;;;;;;;;;;;-82
2022/03/17 20:44:16;;;;;;;;;;;;;;;6.35;65.28027;103797.6;;;;-82
2022/03/17 20:49:12;;;;;;;;;;;;;;;6.29;65.25;103801.5;;;;-81
2022/03/17 20:54:11;;;;;;;;;;;;;;;6.24;65.28613;103807.7;;;;-80
2022/03/17 20:59:12;;;;;;;;;;;;;;;6.18;65.13281;103811.7;;;;-80
2022/03/17 21:04:12;;;;;;;;;;;;;;;6.1;65.23242;103812.7;;;;-81
2022/03/17 21:09:12;;;;;;;;;;;;;;;6.02;65.29688;103806;;;;-79
2022/03/17 21:12:24;;;;;;;6.3;1.7;;;;;;;;;;;;;-80
2022/03/17 21:14:11;;;;;;;;;;;;;;;5.96;65.18848;103807.3;;;;-81
2022/03/17 21:19:12;;;;;;;;;;;;;;;5.89;65.37598;103820.9;;;;-80
2022/03/17 21:24:14;;;;;;;;;;;;;;;5.86;65.4043;103829.5;;;;-80
2022/03/17 21:29:11;;;;;;;;;;;;;;;5.78;65.46973;103831.3;;;;-79
2022/03/17 21:34:14;;;;;;;;;;;;;;;5.74;65.56152;103836.6;;;;-80
2022/03/17 21:39:11;;;;;;;;;;;;;;;5.69;65.79785;103840.6;;;;-80
2022/03/17 21:42:25;;;;;;;6.6;2;;;;;;;;;;;;;-79
2022/03/17 21:44:13;;;;;;;;;;;;;;;5.64;65.90918;103842.9;;;;-79
2022/03/17 21:49:17;;;;;;;;;;;;;;;5.59;65.91309;103840.3;;;;-82
2022/03/17 21:54:10;;;;;;;;;;;;;;;5.54;66.08203;103850.9;;;;-80
2022/03/17 21:59:11;;;;;;;;;;;;;;;5.5;65.83301;103851.3;;;;-80
2022/03/17 22:04:11;;;;;;;;;;;;;;;5.46;65.83887;103854.1;;;;-80
2022/03/17 22:09:15;;;;;;;;;;;;;;;5.42;65.80078;103865.8;;;;-79
2022/03/17 22:12:26;;;;;;;4.7;1.7;;;;;;;;;;;;;-82
2022/03/17 22:14:11;;;;;;;;;;;;;;;5.37;65.92383;103864;;;;-79
2022/03/17 22:19:11;;;;;;;;;;;;;;;5.34;65.96387;103867.4;;;;-79
2022/03/17 22:24:11;;;;;;;;;;;;;;;5.31;65.99121;103882.9;;;;-80
2022/03/17 22:29:11;;;;;;;;;;;;;;;5.28;65.86621;103889.9;;;;-80
2022/03/17 22:34:11;;;;;;;;;;;;;;;5.27;65.91797;103898.9;;;;-78
2022/03/17 22:39:11;;;;;;;;;;;;;;;5.21;65.68848;103911;;;;-78
2022/03/17 22:42:27;;;;;;;9;1.8;;;;;;;;;;;;;-81
2022/03/17 22:44:12;;;;;;;;;;;;;;;5.16;65.81348;103917.8;;;;-80
2022/03/17 22:49:11;;;;;;;;;;;;;;;5.11;65.66211;103923.3;;;;-80
2022/03/17 22:54:14;;;;;;;;;;;;;;;5.05;65.52246;103930.2;;;;-79
2022/03/17 22:59:11;;;;;;;;;;;;;;;5;65.47168;103934.4;;;;-80
2022/03/17 23:04:11;;;;;;;;;;;;;;;4.94;65.75977;103940;;;;-79
2022/03/17 23:09:11;;;;;;;;;;;;;;;4.9;65.51172;103946.3;;;;-80
2022/03/17 23:12:24;;;;;;;4.9;1.9;;;;;;;;;;;;;-78
2022/03/17 23:14:11;;;;;;;;;;;;;;;4.84;65.56934;103952.3;;;;-79
2022/03/17 23:19:11;;;;;;;;;;;;;;;4.82;65.5;103961.8;;;;-80
2022/03/17 23:24:12;;;;;;;;;;;;;;;4.77;65.31641;103961.1;;;;-79
2022/03/17 23:29:14;;;;;;;;;;;;;;;4.73;65.57324;103965.3;;;;-78
2022/03/17 23:34:11;;;;;;;;;;;;;;;4.68;65.46582;103972.1;;;;-78
2022/03/17 23:39:11;;;;;;;;;;;;;;;4.65;65.5293;103979.4;;;;-78
2022/03/17 23:42:24;;;;;;;4.9;1.8;;;;;;;;;;;;;-78
2022/03/17 23:44:12;;;;;;;;;;;;;;;4.61;65.43457;103984.9;;;;-81
2022/03/17 23:49:11;;;;;;;;;;;;;;;4.56;65.65625;103994;;;;-81
2022/03/17 23:54:13;;;;;;;;;;;;;;;4.51;65.57422;103995.3;;;;-80
2022/03/17 23:59:13;;;;;;;;;;;;;;;4.48;65.56836;103992;;;;-79
